createdAt,value
2022-10-21T00:00:25.788Z,12.63
2022-10-21T00:02:28.400Z,12.10
2022-10-21T00:04:31.036Z,12.55
2022-10-21T00:06:35.029Z,13.93
2022-10-21T00:08:39.125Z,12.07
2022-10-21T00:10:41.899Z,12.00
2022-10-21T00:12:44.494Z,12.85
2022-10-21T00:14:53.602Z,12.80
2022-10-21T00:16:59.949Z,13.80
2022-10-21T00:19:02.567Z,13.07
2022-10-21T00:21:10.674Z,11.85
2022-10-21T00:23:14.589Z,12.02
2022-10-21T00:25:17.422Z,12.05
2022-10-21T00:27:20.069Z,12.30
2022-10-21T00:29:22.763Z,12.27
2022-10-21T00:31:26.162Z,12.38
2022-10-21T00:33:29.473Z,13.05
2022-10-21T00:35:34.618Z,12.02
2022-10-21T00:37:37.552Z,12.60
2022-10-21T00:39:42.029Z,12.43
2022-10-21T00:41:44.600Z,12.00
2022-10-21T00:43:59.224Z,12.43
2022-10-21T00:46:06.478Z,13.10
2022-10-21T00:48:15.904Z,11.82
2022-10-21T00:50:27.070Z,12.52
2022-10-21T00:52:32.072Z,12.68
2022-10-21T00:54:36.525Z,12.43
2022-10-21T00:56:45.145Z,12.70
2022-10-21T00:58:49.258Z,12.85
2022-10-21T01:00:55.623Z,12.27
2022-10-21T01:02:59.002Z,12.70
2022-10-21T01:05:04.109Z,12.63
2022-10-21T01:07:06.824Z,12.63
2022-10-21T01:09:09.651Z,12.77
2022-10-21T01:11:15.376Z,12.85
2022-10-21T01:13:26.787Z,12.05
2022-10-21T01:15:37.536Z,12.98
2022-10-21T01:17:50.109Z,11.73
2022-10-21T01:20:26.860Z,12.38
2022-10-21T01:22:47.377Z,12.30
2022-10-21T01:25:04.341Z,11.80
2022-10-21T01:27:18.826Z,11.68
2022-10-21T01:29:43.347Z,12.13
2022-10-21T01:31:55.738Z,12.32
2022-10-21T01:34:04.399Z,11.73
2022-10-21T01:36:20.682Z,11.57
2022-10-21T01:38:29.382Z,10.95
2022-10-21T01:40:37.191Z,11.75
2022-10-21T01:42:44.353Z,12.07
2022-10-21T01:44:54.307Z,13.02
2022-10-21T01:47:02.247Z,12.75
2022-10-21T01:49:12.237Z,13.00
2022-10-21T01:51:17.770Z,12.05
2022-10-21T01:53:24.902Z,12.48
2022-10-21T01:55:31.870Z,11.57
2022-10-21T01:57:38.786Z,11.52
2022-10-21T01:59:43.597Z,12.10
2022-10-21T02:01:48.384Z,12.93
2022-10-21T02:03:57.114Z,12.38
2022-10-21T02:06:00.234Z,11.55
2022-10-21T02:08:03.185Z,12.30
2022-10-21T02:10:06.514Z,11.88
2022-10-21T02:12:10.495Z,11.77
2022-10-21T02:14:17.500Z,11.70
2022-10-21T02:16:25.040Z,12.00
2022-10-21T02:18:28.675Z,12.18
2022-10-21T02:20:36.216Z,11.73
2022-10-21T02:22:41.150Z,12.35
2022-10-21T02:24:51.175Z,10.77
2022-10-21T02:26:54.170Z,11.60
2022-10-21T02:28:59.444Z,11.32
2022-10-21T02:31:15.485Z,11.75
2022-10-21T02:33:23.728Z,10.75
2022-10-21T02:35:37.704Z,11.15
2022-10-21T02:37:44.252Z,12.15
2022-10-21T02:39:52.787Z,11.75
2022-10-21T02:41:57.365Z,11.68
2022-10-21T02:44:02.459Z,11.85
2022-10-21T02:46:08.911Z,11.55
2022-10-21T02:48:11.585Z,10.27
2022-10-21T02:50:14.417Z,11.38
2022-10-21T02:52:18.464Z,11.32
2022-10-21T02:54:21.284Z,10.65
2022-10-21T02:56:23.883Z,10.50
2022-10-21T02:58:27.241Z,11.20
2022-10-21T03:00:32.744Z,10.25
2022-10-21T03:02:35.900Z,10.35
2022-10-21T03:04:38.465Z,10.95
2022-10-21T03:06:41.032Z,10.40
2022-10-21T03:08:45.032Z,10.45
2022-10-21T03:10:52.985Z,10.65
2022-10-21T03:12:56.230Z,11.20
2022-10-21T03:14:58.825Z,10.15
2022-10-21T03:17:01.400Z,11.65
2022-10-21T03:19:04.006Z,11.20
2022-10-21T03:21:08.967Z,11.43
2022-10-21T03:23:11.690Z,11.80
2022-10-21T03:25:15.660Z,10.52
2022-10-21T03:27:18.339Z,13.45
2022-10-21T03:29:20.943Z,13.52
2022-10-21T03:31:26.712Z,14.63
2022-10-21T03:33:29.264Z,14.57
2022-10-21T03:35:31.904Z,14.75
2022-10-21T03:37:34.509Z,15.05
2022-10-21T03:39:37.110Z,14.98
2022-10-21T03:41:41.341Z,14.45
2022-10-21T03:43:43.911Z,12.75
2022-10-21T03:45:47.910Z,12.85
2022-10-21T03:47:50.499Z,12.02
2022-10-21T03:49:53.120Z,12.55
2022-10-21T03:51:55.682Z,12.70
2022-10-21T03:53:58.241Z,11.68
2022-10-21T03:56:00.777Z,12.50
2022-10-21T03:58:04.773Z,12.73
2022-10-21T04:00:08.778Z,12.35
2022-10-21T04:02:11.394Z,11.98
2022-10-21T04:04:14.026Z,12.10
2022-10-21T04:06:16.596Z,12.90
2022-10-21T04:08:19.191Z,14.35
2022-10-21T04:10:21.931Z,14.63
2022-10-21T04:12:24.776Z,13.80
2022-10-21T04:14:28.683Z,15.18
2022-10-21T04:16:33.329Z,13.77
2022-10-21T04:18:35.964Z,15.13
2022-10-21T04:20:38.574Z,15.30
2022-10-21T04:22:41.443Z,14.40
2022-10-21T04:24:44.136Z,15.57
2022-10-21T04:26:46.712Z,14.68
2022-10-21T04:28:49.266Z,14.65
2022-10-21T04:30:53.683Z,15.20
2022-10-21T04:32:56.244Z,15.43
2022-10-21T04:34:58.855Z,14.27
2022-10-21T04:37:04.200Z,14.88
2022-10-21T04:39:08.035Z,13.82
2022-10-21T04:41:10.596Z,13.73
2022-10-21T04:43:13.155Z,12.45
2022-10-21T04:45:16.120Z,12.60
2022-10-21T04:47:20.113Z,11.70
2022-10-21T04:49:22.791Z,12.10
2022-10-21T04:51:25.538Z,10.75
2022-10-21T04:53:28.153Z,11.98
2022-10-21T04:55:30.809Z,12.35
2022-10-21T04:57:33.441Z,11.63
2022-10-21T04:59:36.089Z,11.07
2022-10-21T05:01:38.687Z,11.50
2022-10-21T05:03:42.650Z,10.80
2022-10-21T05:05:45.220Z,10.52
2022-10-21T05:07:47.825Z,10.60
2022-10-21T05:09:50.380Z,10.05
2022-10-21T05:11:52.924Z,11.30
2022-10-21T05:13:55.527Z,11.23
2022-10-21T05:16:02.026Z,10.32
2022-10-21T05:18:04.850Z,10.00
2022-10-21T05:20:10.132Z,10.70
2022-10-21T05:22:12.815Z,9.75
2022-10-21T05:24:15.412Z,10.80
2022-10-21T05:26:18.018Z,10.23
2022-10-21T05:28:21.209Z,11.05
2022-10-21T05:30:23.792Z,11.00
2022-10-21T05:32:26.715Z,11.63
2022-10-21T05:34:29.307Z,12.40
2022-10-21T05:36:33.261Z,11.27
2022-10-21T05:38:36.413Z,11.52
2022-10-21T05:40:41.155Z,12.27
2022-10-21T05:42:43.675Z,11.73
2022-10-21T05:44:46.303Z,12.30
2022-10-21T05:46:48.907Z,12.32
2022-10-21T05:48:51.465Z,11.90
2022-10-21T05:50:55.555Z,12.00
2022-10-21T05:52:59.496Z,12.35
2022-10-21T05:55:02.069Z,11.20
2022-10-21T05:57:04.743Z,11.55
2022-10-21T05:59:10.043Z,11.95
2022-10-21T06:01:13.053Z,11.07
2022-10-21T06:03:15.649Z,10.60
2022-10-21T06:05:18.508Z,9.80
2022-10-21T06:07:21.088Z,11.23
2022-10-21T06:09:25.186Z,10.20
2022-10-21T06:11:27.833Z,10.02
2022-10-21T06:13:30.648Z,10.77
2022-10-21T06:15:33.276Z,9.73
2022-10-21T06:17:36.118Z,10.32
2022-10-21T06:19:38.871Z,9.75
2022-10-21T06:21:41.432Z,10.57
2022-10-21T06:23:44.113Z,10.55
2022-10-21T06:25:57.229Z,11.30
2022-10-21T06:27:59.769Z,10.63
2022-10-21T06:30:02.460Z,10.57
2022-10-21T06:32:05.383Z,9.90
2022-10-21T06:34:08.117Z,9.35
2022-10-21T06:36:11.028Z,10.15
2022-10-21T06:38:13.761Z,9.60
2022-10-21T06:40:16.359Z,10.15
2022-10-21T06:42:20.494Z,9.32
2022-10-21T06:44:23.069Z,9.00
2022-10-21T06:46:26.130Z,10.18
2022-10-21T06:48:28.824Z,9.70
2022-10-21T06:50:31.639Z,9.10
2022-10-21T06:52:34.330Z,9.35
2022-10-21T06:54:36.934Z,9.68
2022-10-21T06:56:40.303Z,10.15
2022-10-21T06:58:46.453Z,9.73
2022-10-21T07:00:49.053Z,8.40
2022-10-21T07:02:51.643Z,9.75
2022-10-21T07:04:54.206Z,10.50
2022-10-21T07:06:56.875Z,9.90
2022-10-21T07:08:59.723Z,10.85
2022-10-21T07:11:02.975Z,9.90
2022-10-21T07:13:05.609Z,9.48
2022-10-21T07:15:10.392Z,8.70
2022-10-21T07:17:12.977Z,8.00
2022-10-21T07:19:15.684Z,7.40
2022-10-21T07:21:20.060Z,7.60
2022-10-21T07:23:23.020Z,7.63
2022-10-21T07:25:25.560Z,7.32
2022-10-21T07:27:28.160Z,10.07
2022-10-21T07:29:30.738Z,7.38
2022-10-21T07:31:37.633Z,7.15
2022-10-21T07:33:40.217Z,6.72
2022-10-21T07:35:42.823Z,6.90
2022-10-21T07:37:45.371Z,6.05
2022-10-21T07:39:48.018Z,6.50
2022-10-21T07:41:53.423Z,6.70
2022-10-21T07:43:56.210Z,6.22
2022-10-21T07:46:05.993Z,6.32
2022-10-21T07:48:11.517Z,5.07
2022-10-21T07:50:14.912Z,6.65
2022-10-21T07:52:17.489Z,5.30
2022-10-21T07:54:20.883Z,5.20
2022-10-21T07:56:25.648Z,5.50
2022-10-21T07:58:28.214Z,5.75
2022-10-21T08:00:30.782Z,5.50
2022-10-21T08:02:33.620Z,5.05
2022-10-21T08:04:37.579Z,5.63
2022-10-21T08:06:40.439Z,4.50
2022-10-21T08:08:43.248Z,5.65
2022-10-21T08:10:46.084Z,4.38
2022-10-21T08:12:48.774Z,4.25
2022-10-21T08:14:51.416Z,3.80
2022-10-21T08:16:54.356Z,3.25
2022-10-21T08:18:57.136Z,3.50
2022-10-21T08:21:03.745Z,3.47
2022-10-21T08:23:06.642Z,3.45
2022-10-21T08:25:11.689Z,3.88
2022-10-21T08:27:14.426Z,4.25
2022-10-21T08:29:17.028Z,3.70
2022-10-21T08:31:21.551Z,3.65
2022-10-21T08:33:24.176Z,4.20
2022-10-21T08:35:26.820Z,4.35
2022-10-21T08:37:32.036Z,4.57
2022-10-21T08:39:35.413Z,4.40
2022-10-21T08:41:58.949Z,4.20
2022-10-21T08:44:06.079Z,6.13
2022-10-21T08:46:12.786Z,6.35
2022-10-21T08:48:19.824Z,6.45
2022-10-21T08:50:25.859Z,6.88
2022-10-21T08:52:39.493Z,6.35
2022-10-21T08:54:47.765Z,5.97
2022-10-21T08:56:56.389Z,5.50
2022-10-21T08:58:59.283Z,6.50
2022-10-21T09:01:05.873Z,5.20
2022-10-21T09:03:19.324Z,4.40
2022-10-21T09:05:39.931Z,3.90
2022-10-21T09:07:53.639Z,4.00
2022-10-21T09:10:00.013Z,3.67
2022-10-21T09:12:12.749Z,3.65
2022-10-21T09:14:40.021Z,4.38
2022-10-21T09:16:50.442Z,3.92
2022-10-21T09:19:06.941Z,4.05
2022-10-21T09:21:18.811Z,3.78
2022-10-21T09:23:45.752Z,4.00
2022-10-21T09:25:53.364Z,4.05
2022-10-21T09:27:57.581Z,3.20
2022-10-21T09:30:02.991Z,3.53
2022-10-21T09:32:15.618Z,4.40
2022-10-21T09:34:23.582Z,4.10
2022-10-21T09:36:35.159Z,4.22
2022-10-21T09:38:44.471Z,4.43
2022-10-21T09:40:49.351Z,4.05
2022-10-21T09:42:55.860Z,4.38
2022-10-21T09:44:58.595Z,4.45
2022-10-21T09:47:01.221Z,4.00
2022-10-21T09:49:36.714Z,3.90
2022-10-21T09:51:30.916Z,4.57
2022-10-21T09:53:38.397Z,4.57
2022-10-21T09:55:45.177Z,3.55
2022-10-21T09:57:54.901Z,4.53
2022-10-21T10:00:01.079Z,3.92
2022-10-21T10:02:08.117Z,3.60
2022-10-21T10:04:12.361Z,3.60
2022-10-21T10:06:30.464Z,4.32
2022-10-21T10:08:37.608Z,4.70
2022-10-21T10:10:40.305Z,3.45
2022-10-21T10:12:56.946Z,4.10
2022-10-21T10:15:26.937Z,3.88
2022-10-21T10:17:35.573Z,3.33
2022-10-21T10:19:38.194Z,3.53
2022-10-21T10:21:40.789Z,3.28
2022-10-21T10:23:45.838Z,3.58
2022-10-21T10:25:53.299Z,3.63
2022-10-21T10:27:59.611Z,2.80
2022-10-21T10:30:02.914Z,2.90
2022-10-21T10:32:13.830Z,1.92
2022-10-21T10:34:25.063Z,2.30
2022-10-21T10:36:32.017Z,1.75
2022-10-21T10:38:36.884Z,2.03
2022-10-21T10:40:43.495Z,1.95
2022-10-21T10:42:46.877Z,2.30
2022-10-21T10:44:54.654Z,2.00
2022-10-21T10:46:59.296Z,1.60
2022-10-21T10:49:07.699Z,1.77
2022-10-21T10:51:26.064Z,1.90
2022-10-21T10:53:31.990Z,1.95
2022-10-21T10:55:35.232Z,2.08
2022-10-21T10:57:44.589Z,1.50
2022-10-21T11:00:07.120Z,1.35
2022-10-21T11:02:23.247Z,1.38
2022-10-21T11:04:33.469Z,1.48
2022-10-21T11:06:43.363Z,1.40
2022-10-21T11:08:51.240Z,1.40
2022-10-21T11:10:58.197Z,1.35
2022-10-21T11:13:02.209Z,1.30
2022-10-21T11:15:14.628Z,1.08
2022-10-21T11:17:20.268Z,1.23
2022-10-21T11:19:30.108Z,1.23
2022-10-21T11:21:43.970Z,1.00
2022-10-21T11:24:07.615Z,1.45
2022-10-21T11:26:20.608Z,1.70
2022-10-21T11:28:29.723Z,1.75
2022-10-21T11:30:44.250Z,2.20
2022-10-21T11:33:00.040Z,1.40
2022-10-21T11:35:17.724Z,1.48
2022-10-21T11:37:28.860Z,1.45
2022-10-21T11:39:40.553Z,1.77
2022-10-21T11:43:56.832Z,1.98
2022-10-21T11:46:05.924Z,2.35
2022-10-21T11:48:21.025Z,1.17
2022-10-21T11:50:30.535Z,1.52
2022-10-21T11:52:42.471Z,1.02
2022-10-21T11:55:09.846Z,2.03
2022-10-21T11:57:18.080Z,1.30
2022-10-21T11:59:36.645Z,1.40
2022-10-21T12:01:48.644Z,1.50
2022-10-21T12:04:11.476Z,1.45
2022-10-21T12:06:27.447Z,1.20
2022-10-21T12:08:39.695Z,1.42
2022-10-21T12:10:50.624Z,1.20
2022-10-21T12:12:57.403Z,1.30
2022-10-21T12:15:02.477Z,1.50
2022-10-21T12:17:11.622Z,1.60
2022-10-21T12:19:15.227Z,1.40
2022-10-21T12:21:24.386Z,1.20
2022-10-21T12:23:30.360Z,2.10
2022-10-21T12:25:43.508Z,1.50
2022-10-21T12:27:55.241Z,1.17
2022-10-21T12:32:19.623Z,1.58
2022-10-21T12:34:23.292Z,1.10
2022-10-21T12:36:42.237Z,1.20
2022-10-21T12:38:47.968Z,1.25
2022-10-21T12:40:51.575Z,1.05
2022-10-21T12:43:00.446Z,1.20
2022-10-21T12:45:03.577Z,1.48
2022-10-21T12:47:25.906Z,1.20
2022-10-21T12:49:32.445Z,1.50
2022-10-21T12:51:36.655Z,1.20
2022-10-21T12:53:42.466Z,1.23
2022-10-21T12:55:51.033Z,1.50
2022-10-21T12:58:01.388Z,1.13
2022-10-21T13:00:41.425Z,1.10
2022-10-21T13:03:03.637Z,1.30
2022-10-21T13:05:06.756Z,1.30
2022-10-21T13:07:30.047Z,1.33
2022-10-21T13:09:35.501Z,1.15
2022-10-21T13:11:40.038Z,1.23
2022-10-21T13:13:43.617Z,1.30
2022-10-21T13:15:48.260Z,1.10
2022-10-21T13:17:53.351Z,1.17
2022-10-21T13:20:18.570Z,1.20
2022-10-21T13:22:23.593Z,1.52
2022-10-21T13:24:27.991Z,1.48
2022-10-21T13:26:31.068Z,1.40
2022-10-21T13:28:34.929Z,1.33
2022-10-21T13:30:38.994Z,1.20
2022-10-21T13:32:42.623Z,1.10
2022-10-21T13:34:58.718Z,1.10
2022-10-21T13:37:01.397Z,1.02
2022-10-21T13:39:09.495Z,1.20
2022-10-21T13:41:22.749Z,0.95
2022-10-21T13:43:28.821Z,1.15
2022-10-21T13:45:35.763Z,1.30
2022-10-21T13:47:38.701Z,1.27
2022-10-21T13:49:43.087Z,1.02
2022-10-21T13:51:47.856Z,1.90
2022-10-21T13:53:53.953Z,1.17
2022-10-21T13:55:58.932Z,1.10
2022-10-21T13:58:01.490Z,1.23
2022-10-21T14:00:08.065Z,1.55
2022-10-21T14:02:24.179Z,1.30
2022-10-21T14:04:28.555Z,1.38
2022-10-21T14:06:36.186Z,1.40
2022-10-21T14:08:43.361Z,1.50
2022-10-21T14:10:48.333Z,1.40
2022-10-21T14:12:51.747Z,1.58
2022-10-21T14:14:56.875Z,1.60
2022-10-21T14:17:02.767Z,1.00
2022-10-21T14:19:09.232Z,1.27
2022-10-21T14:21:18.668Z,1.27
2022-10-21T14:23:24.208Z,1.00
2022-10-21T14:25:28.579Z,1.00
2022-10-21T14:27:33.163Z,1.38
2022-10-21T14:29:37.047Z,1.15
2022-10-21T14:31:42.988Z,1.10
2022-10-21T14:33:49.646Z,1.20
2022-10-21T14:36:10.671Z,1.40
2022-10-21T14:38:26.523Z,1.30
2022-10-21T14:40:34.062Z,1.40
2022-10-21T14:42:36.971Z,1.65
2022-10-21T14:44:42.598Z,1.90
2022-10-21T14:46:47.600Z,5.07
2022-10-21T14:48:54.024Z,9.63
2022-10-21T14:51:01.267Z,7.30
2022-10-21T14:53:04.330Z,2.90
2022-10-21T14:55:10.588Z,3.03
2022-10-21T14:57:30.688Z,3.53
2022-10-21T14:59:40.208Z,2.10
2022-10-21T15:01:43.941Z,1.60
2022-10-21T15:03:48.505Z,1.40
2022-10-21T15:05:51.206Z,1.60
2022-10-21T15:08:32.396Z,1.35
2022-10-21T15:10:35.256Z,2.03
2022-10-21T15:12:44.567Z,1.45
2022-10-21T15:14:47.163Z,1.80
2022-10-21T15:16:53.468Z,1.50
2022-10-21T15:18:56.277Z,1.85
2022-10-21T15:21:02.280Z,1.80
2022-10-21T15:23:05.174Z,1.88
2022-10-21T15:25:10.076Z,1.83
2022-10-21T15:27:18.657Z,1.73
2022-10-21T15:29:29.400Z,1.35
2022-10-21T15:31:32.037Z,1.20
2022-10-21T15:33:34.585Z,1.30
2022-10-21T15:35:37.117Z,1.75
2022-10-21T15:37:39.847Z,1.27
2022-10-21T15:39:45.321Z,1.45
2022-10-21T15:41:53.592Z,1.48
2022-10-21T15:44:00.629Z,1.40
2022-10-21T15:46:04.618Z,1.67
2022-10-21T15:48:10.347Z,1.63
2022-10-21T15:50:16.436Z,1.50
2022-10-21T15:52:19.117Z,1.55
2022-10-21T15:54:22.130Z,1.27
2022-10-21T15:56:24.774Z,1.50
2022-10-21T15:58:27.560Z,1.20
2022-10-21T16:00:30.152Z,1.23
2022-10-21T16:02:39.365Z,1.20
2022-10-21T16:04:42.892Z,1.50
2022-10-21T16:06:48.086Z,1.20
2022-10-21T16:08:53.049Z,1.70
2022-10-21T16:10:55.837Z,1.30
2022-10-21T16:12:59.324Z,1.63
2022-10-21T16:15:01.880Z,1.50
2022-10-21T16:17:04.619Z,1.58
2022-10-21T16:19:09.906Z,1.45
2022-10-21T16:21:13.443Z,1.80
2022-10-21T16:23:16.072Z,1.58
2022-10-21T16:25:19.585Z,3.05
2022-10-21T16:27:31.345Z,2.17
2022-10-21T16:29:40.050Z,2.05
2022-10-21T16:31:42.700Z,1.95
2022-10-21T16:33:46.080Z,1.88
2022-10-21T16:35:49.987Z,2.20
2022-10-21T16:37:53.149Z,2.25
2022-10-21T16:39:55.756Z,2.10
2022-10-21T16:41:58.275Z,2.20
2022-10-21T16:44:01.001Z,2.40
2022-10-21T16:46:03.620Z,2.15
2022-10-21T16:48:06.477Z,2.03
2022-10-21T16:50:18.436Z,2.30
2022-10-21T16:52:22.482Z,2.00
2022-10-21T16:54:25.067Z,2.13
2022-10-21T16:58:35.842Z,1.50
2022-10-21T17:00:38.586Z,1.88
2022-10-21T17:02:41.328Z,1.48
2022-10-21T17:04:44.016Z,1.92
2022-10-21T17:06:46.559Z,1.67
2022-10-21T17:08:52.215Z,1.90
2022-10-21T17:10:54.852Z,2.75
2022-10-21T17:12:59.153Z,3.45
2022-10-21T17:15:02.484Z,3.80
2022-10-21T17:17:05.063Z,3.38
2022-10-21T17:19:08.356Z,3.17
2022-10-21T17:21:20.314Z,2.58
2022-10-21T17:23:25.129Z,3.75
2022-10-21T17:25:30.519Z,2.90
2022-10-21T17:27:33.064Z,3.33
2022-10-21T17:29:36.101Z,2.25
2022-10-21T17:31:40.377Z,4.55
2022-10-21T17:33:43.445Z,5.65
2022-10-21T17:35:46.023Z,5.63
2022-10-21T17:37:49.704Z,4.95
2022-10-21T17:39:52.290Z,5.15
2022-10-21T17:41:56.461Z,5.20
2022-10-21T17:44:01.704Z,5.57
2022-10-21T17:46:04.515Z,4.78
2022-10-21T17:48:07.524Z,5.40
2022-10-21T17:50:11.430Z,5.68
2022-10-21T17:52:14.012Z,5.25
2022-10-21T17:54:17.102Z,5.70
2022-10-21T17:56:20.453Z,5.15
2022-10-21T17:58:24.458Z,4.93
2022-10-21T18:00:27.043Z,4.93
2022-10-21T18:02:33.308Z,5.50
2022-10-21T18:04:35.892Z,5.63
2022-10-21T18:06:39.776Z,6.40
2022-10-21T18:08:43.458Z,5.60
2022-10-21T18:10:53.009Z,6.05
2022-10-21T18:12:55.563Z,7.03
2022-10-21T18:14:59.542Z,7.13
2022-10-21T18:17:02.114Z,6.38
2022-10-21T18:19:04.725Z,5.93
2022-10-21T18:21:10.185Z,6.10
2022-10-21T18:23:13.395Z,5.53
2022-10-21T18:25:16.462Z,6.20
2022-10-21T18:27:19.124Z,5.60
2022-10-21T18:29:22.184Z,5.40
2022-10-21T18:31:28.126Z,5.15
2022-10-21T18:33:30.966Z,5.75
2022-10-21T18:35:33.533Z,5.32
2022-10-21T18:37:36.392Z,5.30
2022-10-21T18:39:38.991Z,6.03
2022-10-21T18:41:42.045Z,6.90
2022-10-21T18:43:48.044Z,7.43
2022-10-21T18:45:50.599Z,5.50
2022-10-21T18:47:55.559Z,4.43
2022-10-21T18:49:58.125Z,4.32
2022-10-21T18:52:00.688Z,3.78
2022-10-21T18:54:03.284Z,3.25
2022-10-21T18:56:06.745Z,2.78
2022-10-21T18:58:09.345Z,3.75
2022-10-21T19:00:12.437Z,4.25
2022-10-21T19:02:21.128Z,2.83
2022-10-21T19:04:25.491Z,2.85
2022-10-21T19:06:36.735Z,3.00
2022-10-21T19:08:39.556Z,3.17
2022-10-21T19:10:43.031Z,3.65
2022-10-21T19:12:45.675Z,3.50
2022-10-21T19:14:48.214Z,3.60
2022-10-21T19:16:50.856Z,3.60
2022-10-21T19:18:54.729Z,2.90
2022-10-21T19:20:58.785Z,3.40
2022-10-21T19:23:01.434Z,3.00
2022-10-21T19:25:04.254Z,3.00
2022-10-21T19:27:06.833Z,3.00
2022-10-21T19:29:13.209Z,2.97
2022-10-21T19:31:16.878Z,3.35
2022-10-21T19:33:19.451Z,3.58
2022-10-21T19:35:21.994Z,2.80
2022-10-21T19:37:25.910Z,3.03
2022-10-21T19:39:28.572Z,3.17
2022-10-21T19:41:31.143Z,3.03
2022-10-21T19:43:33.787Z,4.40
2022-10-21T19:45:37.141Z,3.45
2022-10-21T19:47:39.678Z,3.25
2022-10-21T19:49:42.280Z,3.17
2022-10-21T19:51:45.002Z,2.97
2022-10-21T19:53:50.123Z,4.13
2022-10-21T19:55:52.731Z,3.97
2022-10-21T19:57:55.272Z,3.00
2022-10-21T19:59:57.869Z,2.72
2022-10-21T20:02:00.427Z,3.22
2022-10-21T20:04:04.173Z,3.20
2022-10-21T20:06:09.683Z,2.63
2022-10-21T20:08:12.245Z,2.95
2022-10-21T20:10:18.327Z,2.90
2022-10-21T20:12:20.976Z,2.92
2022-10-21T20:14:23.520Z,2.60
2022-10-21T20:16:28.364Z,3.03
2022-10-21T20:18:31.652Z,3.10
2022-10-21T20:20:34.221Z,2.95
2022-10-21T20:22:36.810Z,3.25
2022-10-21T20:24:42.076Z,3.63
2022-10-21T20:26:51.335Z,3.13
2022-10-21T20:28:53.911Z,3.08
2022-10-21T20:30:57.987Z,4.28
2022-10-21T20:33:00.569Z,3.40
2022-10-21T20:35:03.244Z,2.45
2022-10-21T20:37:05.835Z,3.60
2022-10-21T20:39:10.241Z,3.83
2022-10-21T20:41:15.401Z,4.00
2022-10-21T20:43:19.334Z,3.80
2022-10-21T20:45:21.922Z,3.25
2022-10-21T20:47:26.428Z,3.22
2022-10-21T20:49:31.530Z,3.40
2022-10-21T20:51:34.956Z,3.42
2022-10-21T20:53:40.034Z,3.47
2022-10-21T20:55:43.728Z,3.42
2022-10-21T20:57:46.411Z,4.40
2022-10-21T20:59:50.379Z,4.10
2022-10-21T21:01:53.052Z,4.75
2022-10-21T21:03:57.329Z,3.92
2022-10-21T21:06:02.138Z,4.07
2022-10-21T21:08:05.000Z,3.85
2022-10-21T21:10:08.523Z,3.80
2022-10-21T21:12:11.135Z,4.35
2022-10-21T21:14:13.761Z,3.97
2022-10-21T21:16:20.359Z,4.43
2022-10-21T21:18:22.934Z,3.45
2022-10-21T21:20:25.521Z,4.25
2022-10-21T21:22:30.975Z,4.28
2022-10-21T21:24:33.836Z,4.32
2022-10-21T21:26:38.465Z,4.07
2022-10-21T21:28:41.809Z,3.90
2022-10-21T21:30:52.109Z,5.78
2022-10-21T21:32:56.050Z,3.45
2022-10-21T21:35:02.216Z,4.97
2022-10-21T21:37:07.661Z,4.95
2022-10-21T21:39:11.483Z,4.97
2022-10-21T21:41:16.474Z,4.30
2022-10-21T21:43:19.168Z,4.55
2022-10-21T21:45:21.755Z,4.50
2022-10-21T21:47:24.339Z,4.47
2022-10-21T21:49:28.279Z,4.85
2022-10-21T21:51:31.507Z,4.22
2022-10-21T21:53:34.172Z,4.32
2022-10-21T21:55:36.912Z,4.53
2022-10-21T21:57:39.482Z,4.43
2022-10-21T21:59:42.105Z,4.13
2022-10-21T22:01:44.720Z,4.28
2022-10-21T22:03:49.142Z,4.40
2022-10-21T22:05:53.052Z,4.18
2022-10-21T22:07:55.641Z,4.15
2022-10-21T22:09:58.200Z,4.82
2022-10-21T22:12:00.786Z,4.18
2022-10-21T22:14:03.554Z,4.05
2022-10-21T22:16:06.768Z,4.10
2022-10-21T22:18:10.186Z,3.60
2022-10-21T22:20:13.405Z,3.83
2022-10-21T22:22:17.658Z,3.70
2022-10-21T22:24:20.288Z,3.55
2022-10-21T22:26:26.470Z,3.28
2022-10-21T22:28:32.096Z,3.38
2022-10-21T22:30:34.632Z,2.78
2022-10-21T22:32:37.676Z,2.63
2022-10-21T22:34:40.316Z,2.67
2022-10-21T22:36:42.952Z,2.38
2022-10-21T22:38:46.884Z,2.50
2022-10-21T22:40:53.811Z,2.20
2022-10-21T22:42:56.370Z,2.60
2022-10-21T22:44:58.978Z,2.42
2022-10-21T22:47:01.557Z,2.55
2022-10-21T22:49:04.966Z,2.78
2022-10-21T22:51:07.661Z,2.50
2022-10-21T22:53:10.483Z,1.60
2022-10-21T22:55:14.562Z,2.03
2022-10-21T22:57:17.363Z,2.33
2022-10-21T22:59:19.935Z,1.70
2022-10-21T23:01:28.961Z,1.65
2022-10-21T23:03:31.716Z,1.90
2022-10-21T23:05:34.341Z,1.60
2022-10-21T23:07:36.905Z,1.92
2022-10-21T23:09:39.516Z,1.90
2022-10-21T23:11:43.519Z,1.20
2022-10-21T23:13:56.337Z,1.52
2022-10-21T23:16:06.972Z,1.80
2022-10-21T23:18:09.859Z,1.50
2022-10-21T23:20:13.022Z,1.23
2022-10-21T23:22:15.642Z,1.50
2022-10-21T23:24:18.242Z,1.30
2022-10-21T23:26:22.295Z,1.70
2022-10-21T23:28:26.350Z,1.70
2022-10-21T23:30:29.101Z,1.98
2022-10-21T23:32:31.695Z,1.48
2022-10-21T23:34:34.294Z,1.55
2022-10-21T23:36:37.204Z,1.58
2022-10-21T23:38:39.775Z,1.33
2022-10-21T23:40:42.517Z,1.60
2022-10-21T23:42:45.121Z,1.10
2022-10-21T23:44:49.028Z,1.38
2022-10-21T23:46:51.629Z,1.25
2022-10-21T23:48:54.268Z,1.60
2022-10-21T23:50:57.169Z,1.30
2022-10-21T23:52:59.770Z,1.40
2022-10-21T23:55:02.372Z,1.30
2022-10-21T23:57:05.191Z,1.40
2022-10-21T23:59:07.814Z,1.33
